Hauptseite
METAR-TAF:

METAR-TAF

Flughäfen :

RAF Linton-on-Ouse

Linton-on-Ouse, England

Breite: 54-03N, Länge: 001-15W, Höhe: 16 m

Beobachtung

Neuester Wetterbericht von vor 35 Minuten, um 07:50 UTC
Wind 5 kt aus Nordwest
Temperatur 4°C
Luftfeuchtigkeit 93%
Luftdruck 1029 hPa
Sichtweite 10 km oder mehr
keine Wolken unter 1500 m und keine Kumulonimbus oder Gewitterwolken

METAR: EGXU 180750Z 31005KT CAVOK 04/03 Q1029 BLU NOSIG

Zeit: 09:25 (08:25 UTC)

Prognose

Neuester Wetterbericht von vor 3 Stunden und 2 Minuten, um 05:23 UTC
Gültige Prognose vom 18 um 06 UTC bis 18 um 15 UTC
Wind 5 kt aus Nordwest
Sichtweite 10 km oder mehr
Leicht bewölkt in der Höhe von 2500 ft

TAF: EGXU 180523Z 1806/1815 32005KT 9999 FEW025

Wetterbeobachtungen und Prognosen von mehr als 4000 Flughäfen (METAR und TAF Bericht).

Die verfügbaren Stationen werden durch gelbe und rote Markierungen auf der Karte dargestellt.

Führen Sie die Maus auf sie, um den Namen der Station zu sehen.

Darauf klicken, um die Beobachtung von Wetterbeobachtungen und Prognosen zu sehen.

Um die Karte zu ändern : klicken Sie auf den grünen Tasten mit einem schwarzen Kreuz Zum Vergrößern, auf den grünen Button mit einem Gedankenstrich zu verkleinern, oder auf die grünen Pfeile für benachbarte Karten.


METAR-TAF: